Highland-University Park's Hourly Summary for Wednesday, March 15, 2017
Hour Temp
(f)
RH
(%)
Solar Rad.
(MJ/m2)
Rainfall
(in)
Wind
(mph)
3/15/2017 12:00 AM 54 46 0 0 2
3/15/2017 1:00 AM 53 46 0 0 2.04
3/15/2017 2:00 AM 50 51 0 0 2.29
3/15/2017 3:00 AM 49 53 0 0 2.27
3/15/2017 4:00 AM 48 54 0 0 3.22
3/15/2017 5:00 AM 47 56 0 0 2.77
3/15/2017 6:00 AM 47 59 0 0 2.73
3/15/2017 7:00 AM 46 65 0 0 2.85
3/15/2017 8:00 AM 46 67 0.01 0 2.77
3/15/2017 9:00 AM 46 67 0.16 0 2.73
3/15/2017 10:00 AM 47 63 0.55 0 3.38
3/15/2017 11:00 AM 50 57 1.54 0 3.76
3/15/2017 12:00 PM 53 55 1.8 0 3.91
3/15/2017 1:00 PM 55 50 2.44 0 4.23
3/15/2017 2:00 PM 58 45 2.87 0 4.21
3/15/2017 3:00 PM 61 41 2.83 0 3.89
3/15/2017 4:00 PM 63 41 2.51 0 3.43
3/15/2017 5:00 PM 64 42 2 0 3.14
3/15/2017 6:00 PM 64 43 1.3 0 2.93
3/15/2017 7:00 PM 64 44 0.52 0 2.67
3/15/2017 8:00 PM 61 49 0.03 0 2.8
3/15/2017 9:00 PM 59 52 0 0 2.98
3/15/2017 10:00 PM 58 55 0 0 2.98
3/15/2017 11:00 PM 57 56 0 0 3.81
Data Summary 54 52 18.56 0.00 3.07